Terminal Aerodrome Forecast
Issued by NWS Jackson, KY

Home | Current Version | Previous Version | Text Only | Print | Product List | Glossary On
Versions: 1 2 3 4 5 6 7 8 9 10 11 12 13 14 15 16 17 18
000
FTUS43 KJKL 020233 AAA
TAFJKL
TAF AMD
KJKL 020233Z 0203/0224 21004KT 1/4SM -DZ FG VV002
     FM020500 32003KT 1/2SM -RASN FG OVC002
     FM021200 32003KT P6SM OVC005
     FM021400 VRB03KT P6SM SCT010 BKN022
     FM021700 VRB03KT P6SM SCT250=

USA.gov is the U.S. government's official web portal to all federal, state and local government web resources and services.